createdAt,value
2022-09-25T00:00:20.251Z,27.65
2022-09-25T00:02:48.697Z,27.23
2022-09-25T00:05:17.742Z,27.80
2022-09-25T00:07:46.012Z,29.15
2022-09-25T00:10:17.996Z,27.75
2022-09-25T00:12:47.655Z,27.88
2022-09-25T00:15:17.544Z,28.15
2022-09-25T00:17:45.761Z,27.05
2022-09-25T00:20:14.398Z,29.27
2022-09-25T00:22:43.209Z,29.67
2022-09-25T00:25:17.509Z,28.10
2022-09-25T00:27:50.464Z,27.35
2022-09-25T00:30:18.979Z,28.95
2022-09-25T00:32:49.557Z,26.42
2022-09-25T00:35:20.138Z,25.98
2022-09-25T00:37:49.657Z,25.95
2022-09-25T00:40:17.942Z,26.52
2022-09-25T00:42:48.041Z,26.67
2022-09-25T00:45:24.742Z,27.70
2022-09-25T00:48:02.767Z,28.33
2022-09-25T00:50:43.214Z,27.45
2022-09-25T00:53:15.471Z,27.58
2022-09-25T00:55:46.335Z,27.77
2022-09-25T00:58:19.508Z,29.25
2022-09-25T01:00:48.069Z,27.95
2022-09-25T01:03:18.183Z,26.85
2022-09-25T01:05:47.570Z,27.92
2022-09-25T01:08:21.325Z,27.17
2022-09-25T01:10:51.322Z,26.80
2022-09-25T01:13:21.857Z,27.88
2022-09-25T01:15:58.915Z,27.40
2022-09-25T01:18:42.027Z,27.13
2022-09-25T01:21:27.681Z,27.35
2022-09-25T01:24:24.900Z,27.23
2022-09-25T01:27:20.083Z,25.10
2022-09-25T01:29:55.143Z,25.20
2022-09-25T01:32:29.974Z,25.85
2022-09-25T01:35:04.044Z,25.83
2022-09-25T01:37:39.836Z,25.65
2022-09-25T01:40:14.354Z,25.52
2022-09-25T01:42:50.409Z,24.08
2022-09-25T01:45:25.257Z,24.10
2022-09-25T01:47:54.599Z,25.42
2022-09-25T01:50:29.783Z,24.90
2022-09-25T01:53:08.474Z,24.95
2022-09-25T01:55:41.897Z,25.15
2022-09-25T01:58:17.673Z,25.02
2022-09-25T02:00:53.103Z,26.17
2022-09-25T02:03:26.055Z,25.17
2022-09-25T02:05:56.522Z,25.42
2022-09-25T02:08:31.803Z,27.65
2022-09-25T02:11:03.718Z,26.13
2022-09-25T02:13:37.921Z,26.92
2022-09-25T02:16:14.187Z,25.42
2022-09-25T02:18:59.777Z,26.52
2022-09-25T02:21:39.978Z,25.27
2022-09-25T02:24:19.043Z,27.20
2022-09-25T02:26:48.679Z,26.90
2022-09-25T02:29:21.459Z,26.05
2022-09-25T02:31:55.384Z,25.50
2022-09-25T02:34:25.355Z,25.50
2022-09-25T02:36:53.947Z,25.30
2022-09-25T02:39:25.873Z,26.02
2022-09-25T02:42:08.460Z,24.70
2022-09-25T02:45:02.664Z,24.48
2022-09-25T02:47:37.401Z,25.65
2022-09-25T02:50:14.626Z,25.25
2022-09-25T02:52:47.949Z,25.65
2022-09-25T02:55:22.808Z,26.25
2022-09-25T02:57:58.764Z,25.48
2022-09-25T03:00:27.251Z,26.00
2022-09-25T03:03:04.107Z,26.10
2022-09-25T03:05:32.694Z,25.67
2022-09-25T03:08:18.759Z,25.90
2022-09-25T03:10:49.580Z,26.27
2022-09-25T03:13:19.587Z,26.08
2022-09-25T03:15:52.222Z,24.95
2022-09-25T03:18:22.314Z,26.02
2022-09-25T03:20:50.709Z,27.08
2022-09-25T03:23:18.762Z,27.65
2022-09-25T03:25:50.428Z,26.83
2022-09-25T03:28:18.721Z,27.00
2022-09-25T03:30:58.651Z,27.70
2022-09-25T03:33:30.004Z,25.58
2022-09-25T03:36:08.170Z,26.58
2022-09-25T03:38:36.386Z,27.13
2022-09-25T03:41:05.804Z,27.08
2022-09-25T03:43:36.586Z,26.58
2022-09-25T03:46:05.355Z,27.10
2022-09-25T03:48:35.444Z,25.92
2022-09-25T03:51:04.942Z,26.40
2022-09-25T03:53:34.150Z,26.00
2022-09-25T03:56:03.229Z,26.98
2022-09-25T03:58:32.329Z,27.10
2022-09-25T04:01:03.281Z,26.20
2022-09-25T04:03:33.940Z,27.98
2022-09-25T04:06:05.954Z,28.63
2022-09-25T04:08:35.938Z,28.50
2022-09-25T04:11:05.225Z,28.15
2022-09-25T04:13:36.347Z,28.48
2022-09-25T04:16:08.501Z,29.48
2022-09-25T04:18:36.981Z,28.48
2022-09-25T04:21:09.842Z,28.05
2022-09-25T04:23:38.605Z,27.63
2022-09-25T04:26:07.912Z,28.15
2022-09-25T04:28:36.392Z,26.77
2022-09-25T04:31:08.148Z,27.20
2022-09-25T04:33:47.734Z,27.77
2022-09-25T04:36:19.193Z,27.95
2022-09-25T04:38:48.098Z,26.35
2022-09-25T04:41:19.812Z,27.27
2022-09-25T04:43:51.348Z,26.55
2022-09-25T04:46:22.274Z,27.73
2022-09-25T04:48:51.609Z,26.50
2022-09-25T04:51:23.885Z,26.92
2022-09-25T04:53:52.334Z,26.67
2022-09-25T04:56:20.389Z,26.65
2022-09-25T04:58:49.846Z,25.63
2022-09-25T05:01:19.839Z,25.67
2022-09-25T05:03:50.466Z,25.25
2022-09-25T05:06:20.417Z,25.30
2022-09-25T05:08:52.075Z,24.35
2022-09-25T05:11:23.128Z,24.83
2022-09-25T05:13:51.989Z,24.45
2022-09-25T05:16:20.996Z,23.00
2022-09-25T05:18:52.705Z,23.77
2022-09-25T05:22:02.890Z,22.80
2022-09-25T05:24:37.268Z,24.58
2022-09-25T05:27:05.579Z,25.60
2022-09-25T05:29:34.613Z,24.80
2022-09-25T05:32:03.568Z,22.17
2022-09-25T05:34:31.805Z,24.55
2022-09-25T05:37:04.961Z,24.92
2022-09-25T05:39:37.431Z,23.17
2022-09-25T05:42:06.504Z,21.27
2022-09-25T05:44:34.875Z,23.70
2022-09-25T05:47:04.125Z,25.80
2022-09-25T05:49:32.501Z,25.80
2022-09-25T05:52:04.558Z,25.50
2022-09-25T05:54:32.773Z,25.05
2022-09-25T05:57:03.584Z,25.20
2022-09-25T05:59:31.814Z,26.13
2022-09-25T06:02:00.336Z,25.33
2022-09-25T06:04:28.656Z,24.45
2022-09-25T06:06:56.979Z,23.35
2022-09-25T06:09:26.687Z,23.27
2022-09-25T06:11:54.933Z,23.20
2022-09-25T06:17:30.150Z,23.90
2022-09-25T06:19:58.887Z,20.67
2022-09-25T06:22:29.113Z,18.90
2022-09-25T06:24:58.960Z,20.30
2022-09-25T06:27:27.712Z,22.08
2022-09-25T06:29:55.943Z,21.13
2022-09-25T06:32:24.224Z,20.67
2022-09-25T06:34:54.403Z,21.85
2022-09-25T06:37:22.605Z,22.20
2022-09-25T06:39:50.876Z,22.45
2022-09-25T06:42:20.584Z,21.45
2022-09-25T06:44:48.832Z,20.83
2022-09-25T06:47:20.846Z,21.83
2022-09-25T06:49:50.555Z,21.05
2022-09-25T06:52:18.723Z,22.70
2022-09-25T06:54:46.852Z,21.13
2022-09-25T06:57:15.032Z,22.48
2022-09-25T06:59:44.554Z,24.45
2022-09-25T07:02:30.151Z,22.60
2022-09-25T07:04:59.520Z,25.52
2022-09-25T07:07:27.671Z,23.23
2022-09-25T07:09:55.823Z,24.55
2022-09-25T07:12:23.944Z,24.25
2022-09-25T07:14:53.494Z,24.25
2022-09-25T07:17:22.022Z,24.30
2022-09-25T07:19:50.204Z,25.05
2022-09-25T07:22:18.398Z,25.35
2022-09-25T07:24:46.504Z,23.88
2022-09-25T07:27:14.669Z,25.15
2022-09-25T07:29:43.042Z,24.88
2022-09-25T07:32:12.601Z,26.45
2022-09-25T07:34:40.961Z,25.02
2022-09-25T07:37:09.247Z,26.50
2022-09-25T07:39:37.388Z,27.35
2022-09-25T07:42:07.037Z,26.30
2022-09-25T07:44:38.394Z,25.48
2022-09-25T07:47:08.928Z,25.73
2022-09-25T07:49:40.273Z,25.80
2022-09-25T07:52:08.428Z,27.25
2022-09-25T07:54:37.808Z,27.08
2022-09-25T07:57:06.038Z,27.70
2022-09-25T07:59:34.329Z,26.67
2022-09-25T08:02:04.006Z,28.17
2022-09-25T08:04:32.377Z,27.02
2022-09-25T08:07:02.697Z,26.85
2022-09-25T08:09:30.928Z,28.40
2022-09-25T08:11:59.127Z,28.67
2022-09-25T08:14:29.598Z,28.73
2022-09-25T08:16:57.893Z,27.23
2022-09-25T08:19:29.486Z,25.75
2022-09-25T08:21:57.720Z,25.50
2022-09-25T08:24:29.392Z,25.13
2022-09-25T08:27:00.744Z,22.23
2022-09-25T08:29:29.295Z,23.45
2022-09-25T08:31:59.962Z,18.98
2022-09-25T08:34:40.567Z,20.27
2022-09-25T08:37:09.827Z,15.40
2022-09-25T08:39:40.593Z,12.38
2022-09-25T08:42:18.551Z,12.63
2022-09-25T08:45:21.733Z,14.00
2022-09-25T08:48:10.928Z,11.95
2022-09-25T08:50:42.343Z,11.68
2022-09-25T08:53:18.505Z,13.52
2022-09-25T08:56:06.276Z,11.95
2022-09-25T08:58:41.054Z,12.30
2022-09-25T09:01:14.848Z,16.33
2022-09-25T09:03:50.224Z,17.67
2022-09-25T09:06:21.090Z,19.75
2022-09-25T09:08:58.656Z,20.13
2022-09-25T09:11:33.678Z,20.00
2022-09-25T09:14:05.852Z,19.48
2022-09-25T09:16:40.407Z,18.25
2022-09-25T09:19:10.790Z,14.70
2022-09-25T09:21:43.209Z,15.40
2022-09-25T09:24:21.135Z,15.43
2022-09-25T09:27:10.459Z,13.90
2022-09-25T09:29:59.311Z,14.02
2022-09-25T09:32:39.216Z,12.77
2022-09-25T09:35:23.289Z,10.45
2022-09-25T09:38:03.540Z,7.47
2022-09-25T09:40:47.397Z,4.35
2022-09-25T09:43:33.041Z,7.35
2022-09-25T09:46:08.884Z,5.75
2022-09-25T09:48:49.050Z,7.72
2022-09-25T09:51:24.502Z,8.43
2022-09-25T09:53:59.627Z,7.60
2022-09-25T09:56:38.860Z,4.18
2022-09-25T09:59:19.981Z,4.05
2022-09-25T10:02:02.337Z,2.72
2022-09-25T10:04:39.690Z,2.60
2022-09-25T10:07:13.172Z,5.03
2022-09-25T10:09:41.267Z,4.03
2022-09-25T10:12:17.033Z,7.13
2022-09-25T10:14:48.572Z,5.45
2022-09-25T10:17:18.762Z,3.47
2022-09-25T10:19:52.769Z,3.38
2022-09-25T10:22:26.176Z,3.53
2022-09-25T10:25:02.276Z,3.47
2022-09-25T10:27:33.215Z,2.17
2022-09-25T10:30:24.300Z,2.92
2022-09-25T10:32:59.277Z,2.92
2022-09-25T10:35:32.907Z,3.50
2022-09-25T10:38:05.016Z,5.88
2022-09-25T10:40:36.189Z,3.83
2022-09-25T10:43:17.391Z,4.82
2022-09-25T10:45:49.051Z,2.53
2022-09-25T10:48:55.829Z,5.55
2022-09-25T10:51:24.689Z,3.65
2022-09-25T10:53:54.286Z,5.57
2022-09-25T10:56:29.413Z,4.35
2022-09-25T10:59:03.284Z,5.88
2022-09-25T11:01:36.452Z,2.30
2022-09-25T11:04:09.303Z,3.88
2022-09-25T11:06:39.422Z,4.13
2022-09-25T11:09:13.846Z,2.42
2022-09-25T11:11:42.890Z,6.28
2022-09-25T11:14:22.507Z,1.58
2022-09-25T11:17:00.712Z,3.40
2022-09-25T11:19:30.652Z,3.05
2022-09-25T11:22:20.294Z,2.92
2022-09-25T11:25:01.459Z,2.53
2022-09-25T11:27:35.677Z,2.10
2022-09-25T11:30:07.170Z,4.68
2022-09-25T11:32:48.959Z,4.15
2022-09-25T11:35:37.077Z,4.28
2022-09-25T11:38:18.586Z,5.60
2022-09-25T11:41:18.655Z,3.92
2022-09-25T11:43:59.133Z,3.55
2022-09-25T11:46:36.540Z,3.45
2022-09-25T11:49:16.458Z,4.57
2022-09-25T11:52:30.344Z,2.13
2022-09-25T11:55:36.546Z,2.45
2022-09-25T11:58:20.795Z,2.03
2022-09-25T12:00:57.564Z,4.10
2022-09-25T12:03:45.496Z,0.60
2022-09-25T12:06:46.135Z,2.65
2022-09-25T12:09:29.729Z,1.90
2022-09-25T12:12:05.196Z,0.65
2022-09-25T12:14:43.302Z,0.52
2022-09-25T12:17:20.523Z,2.40
2022-09-25T12:19:59.289Z,1.55
2022-09-25T12:22:44.209Z,0.85
2022-09-25T12:25:23.331Z,1.13
2022-09-25T12:28:01.150Z,3.17
2022-09-25T12:30:35.471Z,1.98
2022-09-25T12:33:23.461Z,2.55
2022-09-25T12:35:55.544Z,3.17
2022-09-25T12:38:44.217Z,1.33
2022-09-25T12:41:18.786Z,0.60
2022-09-25T12:43:52.610Z,2.67
2022-09-25T12:46:29.858Z,1.33
2022-09-25T12:49:03.358Z,2.95
2022-09-25T12:51:36.327Z,1.02
2022-09-25T12:54:17.202Z,2.67
2022-09-25T12:56:54.088Z,3.72
2022-09-25T12:59:31.301Z,1.48
2022-09-25T13:02:06.781Z,3.92
2022-09-25T13:04:53.726Z,3.25
2022-09-25T13:07:29.785Z,4.05
2022-09-25T13:10:06.767Z,1.20
2022-09-25T13:12:37.067Z,4.00
2022-09-25T13:15:09.073Z,1.98
2022-09-25T13:17:40.008Z,4.63
2022-09-25T13:20:47.357Z,1.13
2022-09-25T13:23:18.897Z,1.63
2022-09-25T13:26:01.143Z,4.45
2022-09-25T13:28:33.665Z,1.85
2022-09-25T13:31:09.246Z,2.72
2022-09-25T13:33:50.047Z,2.63
2022-09-25T13:36:36.396Z,1.35
2022-09-25T13:39:25.041Z,1.75
2022-09-25T13:41:58.583Z,2.38
2022-09-25T13:45:06.506Z,3.20
2022-09-25T13:47:59.715Z,3.78
2022-09-25T13:50:43.972Z,2.53
2022-09-25T13:53:49.046Z,3.42
2022-09-25T13:56:45.943Z,3.13
2022-09-25T13:59:40.511Z,5.10
2022-09-25T14:02:35.052Z,4.90
2022-09-25T14:05:03.332Z,3.03
2022-09-25T14:07:31.803Z,1.15
2022-09-25T14:10:02.748Z,1.95
2022-09-25T14:12:42.822Z,2.40
2022-09-25T14:15:21.228Z,2.30
2022-09-25T14:17:54.135Z,1.98
2022-09-25T14:20:51.160Z,2.38
2022-09-25T14:23:27.252Z,1.95
2022-09-25T14:25:58.870Z,1.75
2022-09-25T14:28:31.823Z,3.05
2022-09-25T14:31:17.018Z,2.03
2022-09-25T14:34:03.166Z,2.80
2022-09-25T14:36:39.666Z,1.35
2022-09-25T14:39:31.185Z,1.58
2022-09-25T14:42:29.422Z,3.17
2022-09-25T14:45:22.789Z,3.03
2022-09-25T14:47:56.359Z,1.10
2022-09-25T14:50:32.246Z,2.08
2022-09-25T14:53:05.151Z,2.15
2022-09-25T14:55:39.859Z,2.08
2022-09-25T14:58:12.175Z,3.40
2022-09-25T15:00:46.904Z,3.03
2022-09-25T15:03:21.654Z,3.35
2022-09-25T15:05:52.150Z,5.32
2022-09-25T15:08:25.480Z,4.05
2022-09-25T15:11:03.757Z,3.72
2022-09-25T15:13:34.785Z,2.60
2022-09-25T15:16:22.029Z,2.15
2022-09-25T15:18:55.334Z,2.75
2022-09-25T15:21:27.853Z,3.10
2022-09-25T15:24:00.330Z,3.50
2022-09-25T15:26:29.678Z,2.10
2022-09-25T15:28:58.418Z,3.35
2022-09-25T15:31:26.815Z,3.42
2022-09-25T15:34:11.617Z,4.28
2022-09-25T15:36:39.666Z,2.50
2022-09-25T15:39:15.023Z,3.13
2022-09-25T15:41:43.960Z,1.00
2022-09-25T15:44:20.912Z,2.58
2022-09-25T15:46:53.390Z,2.83
2022-09-25T15:49:28.004Z,2.33
2022-09-25T15:52:01.480Z,2.38
2022-09-25T15:54:35.429Z,3.60
2022-09-25T15:57:13.123Z,3.40
2022-09-25T15:59:58.591Z,2.80
2022-09-25T16:02:52.086Z,3.25
2022-09-25T16:05:28.353Z,1.25
2022-09-25T16:08:17.226Z,5.22
2022-09-25T16:10:50.102Z,2.88
2022-09-25T16:13:22.853Z,1.20
2022-09-25T16:15:52.771Z,1.70
2022-09-25T16:18:35.326Z,4.30
2022-09-25T16:21:25.231Z,5.65
2022-09-25T16:23:56.610Z,2.67
2022-09-25T16:26:27.892Z,4.00
2022-09-25T16:29:10.167Z,3.90
2022-09-25T16:31:39.616Z,4.72
2022-09-25T16:34:16.008Z,3.65
2022-09-25T16:36:49.937Z,3.42
2022-09-25T16:39:28.841Z,3.25
2022-09-25T16:41:58.556Z,3.28
2022-09-25T16:44:40.443Z,3.40
2022-09-25T16:47:16.989Z,3.45
2022-09-25T16:49:47.046Z,3.15
2022-09-25T16:52:22.838Z,2.35
2022-09-25T16:54:56.999Z,1.98
2022-09-25T16:57:27.828Z,2.40
2022-09-25T16:59:56.126Z,3.40
2022-09-25T17:02:33.609Z,6.15
2022-09-25T17:05:05.819Z,2.72
2022-09-25T17:07:35.428Z,7.70
2022-09-25T17:10:03.515Z,5.15
2022-09-25T17:12:33.150Z,4.05
2022-09-25T17:15:01.414Z,2.30
2022-09-25T17:17:31.098Z,4.70
2022-09-25T17:19:59.695Z,2.92
2022-09-25T17:22:30.523Z,1.70
2022-09-25T17:25:04.142Z,4.90
2022-09-25T17:27:32.409Z,2.88
2022-09-25T17:30:01.417Z,4.47
2022-09-25T17:32:33.128Z,6.22
2022-09-25T17:35:02.348Z,5.68
2022-09-25T17:37:32.778Z,6.30
2022-09-25T17:40:04.942Z,9.00
2022-09-25T17:42:33.122Z,14.55
2022-09-25T17:45:01.265Z,16.88
2022-09-25T17:47:31.020Z,17.30
2022-09-25T17:49:59.276Z,16.75
2022-09-25T17:52:27.508Z,19.80
2022-09-25T17:54:59.601Z,18.95
2022-09-25T17:57:36.102Z,18.70
2022-09-25T18:00:09.275Z,17.98
2022-09-25T18:02:37.697Z,22.35
2022-09-25T18:05:06.722Z,19.25
2022-09-25T18:07:35.087Z,19.65
2022-09-25T18:10:03.889Z,17.67
2022-09-25T18:12:33.854Z,18.60
2022-09-25T18:15:04.877Z,16.98
2022-09-25T18:17:35.957Z,18.02
2022-09-25T18:20:27.284Z,19.85
2022-09-25T18:22:57.628Z,22.48
2022-09-25T18:25:26.179Z,24.02
2022-09-25T18:27:55.866Z,24.50
2022-09-25T18:30:24.989Z,24.08
2022-09-25T18:32:53.646Z,26.60
2022-09-25T18:35:22.995Z,27.15
2022-09-25T18:37:51.471Z,28.02
2022-09-25T18:40:22.189Z,26.30
2022-09-25T18:42:51.385Z,27.23
2022-09-25T18:45:23.217Z,28.80
2022-09-25T18:47:51.537Z,30.30
2022-09-25T18:50:22.958Z,29.85
2022-09-25T18:52:51.479Z,30.40
2022-09-25T18:55:24.708Z,29.02
2022-09-25T18:57:57.628Z,29.63
2022-09-25T19:00:30.586Z,29.75
2022-09-25T19:03:01.636Z,29.75
2022-09-25T19:05:31.536Z,28.58
2022-09-25T19:08:09.597Z,27.15
2022-09-25T19:10:37.973Z,27.73
2022-09-25T19:13:07.780Z,27.40
2022-09-25T19:15:37.596Z,27.92
2022-09-25T19:18:11.708Z,28.75
2022-09-25T19:20:46.706Z,29.27
2022-09-25T19:23:15.512Z,28.52
2022-09-25T19:25:55.435Z,27.88
2022-09-25T19:28:29.060Z,28.10
2022-09-25T19:31:00.394Z,28.48
2022-09-25T19:33:31.250Z,29.50
2022-09-25T19:36:00.268Z,29.35
2022-09-25T19:38:28.356Z,28.65
2022-09-25T19:40:56.612Z,27.80
2022-09-25T19:43:24.810Z,28.30
2022-09-25T19:45:54.706Z,29.02
2022-09-25T19:48:25.574Z,28.65
2022-09-25T19:50:53.945Z,30.10
2022-09-25T19:53:22.594Z,31.10
2022-09-25T19:55:52.255Z,31.30
2022-09-25T19:58:23.287Z,30.70
2022-09-25T20:00:53.573Z,30.88
2022-09-25T20:03:23.604Z,31.58
2022-09-25T20:05:52.067Z,30.30
2022-09-25T20:08:20.389Z,30.58
2022-09-25T20:10:49.126Z,30.50
2022-09-25T20:13:18.175Z,29.85
2022-09-25T20:15:48.120Z,32.22
2022-09-25T20:18:16.885Z,30.58
2022-09-25T20:20:46.829Z,30.27
2022-09-25T20:23:14.898Z,32.83
2022-09-25T20:25:43.655Z,30.77
2022-09-25T20:28:16.645Z,32.58
2022-09-25T20:30:44.935Z,32.15
2022-09-25T20:33:14.517Z,32.60
2022-09-25T20:35:42.898Z,32.00
2022-09-25T20:38:12.626Z,32.30
2022-09-25T20:40:41.213Z,30.05
2022-09-25T20:43:13.974Z,31.85
2022-09-25T20:45:45.119Z,30.85
2022-09-25T20:48:24.749Z,28.95
2022-09-25T20:50:58.138Z,28.08
2022-09-25T20:56:20.582Z,27.67
2022-09-25T20:58:53.134Z,26.92
2022-09-25T21:01:24.595Z,28.92
2022-09-25T21:03:55.808Z,28.27
2022-09-25T21:06:30.475Z,28.20
2022-09-25T21:09:08.205Z,27.13
2022-09-25T21:11:40.484Z,27.90
2022-09-25T21:14:16.430Z,27.25
2022-09-25T21:16:44.547Z,28.45
2022-09-25T21:19:14.464Z,28.58
2022-09-25T21:21:43.174Z,27.90
2022-09-25T21:24:15.172Z,27.45
2022-09-25T21:26:43.697Z,27.85
2022-09-25T21:29:13.126Z,26.90
2022-09-25T21:31:48.223Z,26.13
2022-09-25T21:34:18.149Z,27.52
2022-09-25T21:36:46.919Z,28.48
2022-09-25T21:39:16.485Z,28.15
2022-09-25T21:41:44.825Z,27.40
2022-09-25T21:44:15.610Z,29.52
2022-09-25T21:46:43.995Z,29.30
2022-09-25T21:49:16.692Z,29.25
2022-09-25T21:51:47.115Z,29.33
2022-09-25T21:54:17.759Z,29.73
2022-09-25T21:56:46.101Z,30.67
2022-09-25T21:59:14.725Z,32.63
2022-09-25T22:01:43.595Z,29.40
2022-09-25T22:04:14.042Z,28.08
2022-09-25T22:06:45.365Z,29.23
2022-09-25T22:09:17.372Z,28.40
2022-09-25T22:11:47.916Z,29.98
2022-09-25T22:14:17.173Z,30.90
2022-09-25T22:16:46.801Z,30.55
2022-09-25T22:19:17.377Z,29.20
2022-09-25T22:21:47.382Z,31.02
2022-09-25T22:24:17.451Z,30.75
2022-09-25T22:26:47.439Z,31.63
2022-09-25T22:29:17.625Z,32.35
2022-09-25T22:31:45.916Z,32.22
2022-09-25T22:34:18.158Z,32.47
2022-09-25T22:36:46.292Z,33.25
2022-09-25T22:39:17.985Z,32.08
2022-09-25T22:41:48.845Z,32.13
2022-09-25T22:44:17.240Z,30.55
2022-09-25T22:46:45.598Z,32.70
2022-09-25T22:49:13.844Z,30.77
2022-09-25T22:51:41.979Z,31.20
2022-09-25T22:54:12.827Z,31.05
2022-09-25T22:56:43.027Z,31.60
2022-09-25T22:59:14.553Z,32.47
2022-09-25T23:01:46.497Z,32.83
2022-09-25T23:04:17.513Z,30.75
2022-09-25T23:06:46.072Z,30.50
2022-09-25T23:09:16.098Z,31.17
2022-09-25T23:11:45.882Z,31.40
2022-09-25T23:14:17.078Z,31.60
2022-09-25T23:16:45.918Z,32.55
2022-09-25T23:19:15.014Z,33.28
2022-09-25T23:21:43.580Z,32.35
2022-09-25T23:24:14.015Z,32.03
2022-09-25T23:26:42.114Z,30.88
2022-09-25T23:29:13.432Z,31.08
2022-09-25T23:31:42.080Z,30.92
2022-09-25T23:34:10.502Z,31.50
2022-09-25T23:36:38.898Z,32.00
2022-09-25T23:39:09.626Z,30.67
2022-09-25T23:41:39.746Z,30.63
2022-09-25T23:44:10.915Z,30.35
2022-09-25T23:46:42.208Z,30.65
2022-09-25T23:49:11.092Z,31.27
2022-09-25T23:51:39.700Z,32.03
2022-09-25T23:54:09.109Z,29.88
2022-09-25T23:56:37.532Z,29.55
2022-09-25T23:59:06.604Z,29.98
